Time;durP1;ratioP1;P1;durP2;ratioP2;P2;SDS_P1;SDS_P2;PMS_P1;PMS_P2;Temp;Humidity;BMP_temperature;BMP_pressure;BME280_temperature;BME280_humidity;BME280_pressure;Samples;Min_cycle;Max_cycle;Signal;HPM_P1;HPM_P2
2023/12/26 00:00:17;;;;;;;0.68;0.20;;;9.60;99.90;;;;;;4994382;28;20041;-77
2023/12/26 00:02:42;;;;;;;0.13;0.13;;;9.60;99.90;;;;;;5010175;28;20053;-77
2023/12/26 00:05:08;;;;;;;0.20;0.20;;;9.60;99.90;;;;;;5000730;28;20034;-77
2023/12/26 00:07:34;;;;;;;1.02;0.30;;;9.60;99.90;;;;;;5008187;28;20053;-77
2023/12/26 00:09:59;;;;;;;0.63;0.30;;;9.60;99.90;;;;;;4975486;28;20050;-77
2023/12/26 00:12:25;;;;;;;0.28;0.20;;;9.60;99.90;;;;;;5012515;28;20049;-77
2023/12/26 00:14:51;;;;;;;0.22;0.10;;;9.60;99.90;;;;;;5008799;28;20042;-77
2023/12/26 00:17:17;;;;;;;0.10;0.10;;;9.60;99.90;;;;;;5077848;28;20038;-77
2023/12/26 00:19:43;;;;;;;1.05;0.22;;;9.70;99.90;;;;;;5026834;28;20057;-77
2023/12/26 00:22:08;;;;;;;0.17;0.17;;;9.60;99.90;;;;;;5078363;28;20081;-77
2023/12/26 00:24:34;;;;;;;0.52;0.20;;;9.60;99.90;;;;;;5020785;28;20454;-77
2023/12/26 00:27:00;;;;;;;0.43;0.17;;;9.70;99.90;;;;;;5009580;28;20129;-77
2023/12/26 00:29:25;;;;;;;0.20;0.13;;;9.70;99.90;;;;;;5015420;28;20054;-77
2023/12/26 00:31:51;;;;;;;1.65;0.15;;;9.70;99.90;;;;;;5024295;28;20042;-77
2023/12/26 00:34:17;;;;;;;0.57;0.30;;;9.70;99.90;;;;;;4996308;28;20038;-77
2023/12/26 00:36:43;;;;;;;1.25;0.40;;;9.70;99.90;;;;;;4995364;28;20055;-77
2023/12/26 00:39:08;;;;;;;0.52;0.30;;;9.70;99.90;;;;;;5015785;28;20060;-77
2023/12/26 00:41:34;;;;;;;0.10;0.10;;;9.70;99.90;;;;;;5023195;28;20089;-77
2023/12/26 00:44:00;;;;;;;0.13;0.10;;;9.70;99.90;;;;;;5009629;28;20146;-77
2023/12/26 00:46:26;;;;;;;0.95;0.20;;;9.80;99.90;;;;;;4976824;28;20052;-78
2023/12/26 00:48:51;;;;;;;0.00;0.00;;;9.80;99.90;;;;;;5010324;28;20034;-78
2023/12/26 00:51:17;;;;;;;1.23;0.20;;;9.80;99.90;;;;;;5018404;28;20102;-77
2023/12/26 00:53:43;;;;;;;2.92;0.20;;;9.80;99.90;;;;;;5009680;28;20046;-77
2023/12/26 00:56:08;;;;;;;0.22;0.22;;;9.80;99.90;;;;;;5009195;28;20517;-77
2023/12/26 00:58:35;;;;;;;0.98;0.30;;;9.80;99.90;;;;;;5005549;28;20045;-78
2023/12/26 01:01:01;;;;;;;0.03;0.03;;;9.80;99.90;;;;;;5038803;28;20392;-78
2023/12/26 01:03:26;;;;;;;0.32;0.10;;;9.80;99.90;;;;;;5038146;28;20043;-77
2023/12/26 01:05:52;;;;;;;0.45;0.10;;;9.70;99.90;;;;;;5051559;28;20064;-78
2023/12/26 01:08:18;;;;;;;0.00;0.00;;;9.70;99.90;;;;;;5002093;28;20074;-77
2023/12/26 01:10:44;;;;;;;1.55;0.47;;;9.60;99.90;;;;;;5025751;28;20032;-77
2023/12/26 01:13:10;;;;;;;0.57;0.08;;;9.60;99.90;;;;;;5017564;28;20046;-77
2023/12/26 01:15:39;;;;;;;0.30;0.13;;;9.60;99.90;;;;;;5039677;28;20040;-77
2023/12/26 01:18:05;;;;;;;0.00;0.00;;;9.60;99.90;;;;;;5023767;28;20040;-77
2023/12/26 01:20:31;;;;;;;0.55;0.30;;;9.50;99.90;;;;;;5017791;28;20050;-77
2023/12/26 01:22:57;;;;;;;0.20;0.10;;;9.50;99.90;;;;;;5026967;28;20524;-78
2023/12/26 01:25:23;;;;;;;0.10;0.05;;;9.50;99.90;;;;;;5020218;28;20068;-78
2023/12/26 01:27:48;;;;;;;0.52;0.30;;;9.50;99.90;;;;;;4996901;28;20051;-78
2023/12/26 01:30:14;;;;;;;0.30;0.20;;;9.50;99.90;;;;;;5009407;28;20585;-78
2023/12/26 01:32:40;;;;;;;0.10;0.10;;;9.50;99.90;;;;;;4993564;28;20054;-77
2023/12/26 01:35:06;;;;;;;1.95;0.60;;;9.50;99.90;;;;;;5009490;28;20156;-77
2023/12/26 01:37:32;;;;;;;0.47;0.20;;;9.50;99.90;;;;;;4993560;28;20105;-77
2023/12/26 01:39:57;;;;;;;0.10;0.10;;;9.50;99.90;;;;;;4997826;28;20073;-77
2023/12/26 01:42:23;;;;;;;1.13;0.15;;;9.50;99.90;;;;;;4978048;28;20077;-77
2023/12/26 01:44:49;;;;;;;0.80;0.28;;;9.50;99.90;;;;;;5008235;28;20030;-77
2023/12/26 01:47:16;;;;;;;0.38;0.30;;;9.50;99.90;;;;;;4991834;28;20742;-78
2023/12/26 01:49:43;;;;;;;1.13;0.10;;;9.50;99.90;;;;;;5019634;28;20812;-77
2023/12/26 01:52:12;;;;;;;1.38;0.30;;;9.40;99.90;;;;;;4995033;28;20038;-78
2023/12/26 01:54:38;;;;;;;6.10;0.35;;;9.40;99.90;;;;;;5010159;28;20787;-79
2023/12/26 01:57:06;;;;;;;0.45;0.20;;;9.40;99.90;;;;;;5009451;28;20064;-78
2023/12/26 01:59:35;;;;;;;5.45;0.40;;;9.40;99.90;;;;;;5058905;28;20693;-78
2023/12/26 02:02:01;;;;;;;2.92;0.30;;;9.40;99.90;;;;;;5007954;28;20046;-78
2023/12/26 02:04:28;;;;;;;0.28;0.20;;;9.40;99.90;;;;;;5016996;28;20101;-78
2023/12/26 02:06:56;;;;;;;2.67;0.45;;;9.40;99.90;;;;;;4993362;28;20049;-78
2023/12/26 02:09:23;;;;;;;0.77;0.25;;;9.40;99.90;;;;;;5008049;28;20406;-78
2023/12/26 02:11:50;;;;;;;2.72;0.60;;;9.40;99.90;;;;;;5015707;28;20049;-78
2023/12/26 02:14:16;;;;;;;1.38;0.45;;;9.40;99.90;;;;;;5008445;28;20050;-78
2023/12/26 02:16:43;;;;;;;3.92;0.28;;;9.40;99.90;;;;;;4992643;28;20034;-78
2023/12/26 02:19:09;;;;;;;2.80;0.88;;;9.40;99.90;;;;;;4992558;28;20049;-78
2023/12/26 02:21:35;;;;;;;3.00;0.93;;;9.40;99.90;;;;;;4992914;28;20038;-78
2023/12/26 02:24:00;;;;;;;3.67;0.50;;;9.40;99.90;;;;;;5008018;28;20049;-78
2023/12/26 02:26:29;;;;;;;2.22;0.38;;;9.40;99.90;;;;;;4993565;28;20073;-78
2023/12/26 02:28:56;;;;;;;3.55;0.28;;;9.40;99.90;;;;;;5007219;28;20139;-78
2023/12/26 02:31:23;;;;;;;2.03;0.30;;;9.40;99.90;;;;;;5007926;28;20033;-78
2023/12/26 02:33:48;;;;;;;1.83;0.40;;;9.40;99.90;;;;;;5020639;28;20061;-78
2023/12/26 02:36:14;;;;;;;1.17;0.40;;;9.50;99.90;;;;;;4996435;28;20042;-78
2023/12/26 02:38:41;;;;;;;1.20;0.32;;;9.50;99.90;;;;;;5008913;28;20061;-78
2023/12/26 02:41:06;;;;;;;7.72;0.43;;;9.50;99.90;;;;;;5008442;28;20125;-79
2023/12/26 02:43:35;;;;;;;5.88;0.82;;;9.50;99.90;;;;;;5013013;28;20062;-79
2023/12/26 02:46:00;;;;;;;4.88;1.05;;;9.60;99.90;;;;;;4998158;28;20042;-79
2023/12/26 02:48:26;;;;;;;0.80;0.50;;;9.50;99.90;;;;;;4988452;28;20767;-79
2023/12/26 02:50:53;;;;;;;6.95;0.60;;;9.50;99.90;;;;;;5009107;28;20042;-79
2023/12/26 02:53:19;;;;;;;5.18;1.10;;;9.60;99.90;;;;;;4991774;28;20046;-78
2023/12/26 02:55:45;;;;;;;1.80;0.52;;;9.60;99.90;;;;;;5018787;28;20117;-78
2023/12/26 02:58:10;;;;;;;2.20;0.20;;;9.60;99.90;;;;;;5051883;28;20130;-78
2023/12/26 03:00:36;;;;;;;3.45;0.57;;;9.60;99.90;;;;;;5019712;28;20104;-78
2023/12/26 03:03:02;;;;;;;2.13;0.38;;;9.60;99.90;;;;;;5030453;28;20056;-78
2023/12/26 03:05:27;;;;;;;6.28;0.80;;;9.60;99.90;;;;;;5072612;28;20059;-79
2023/12/26 03:07:53;;;;;;;3.13;0.52;;;9.60;99.90;;;;;;5013138;28;20113;-79
2023/12/26 03:10:19;;;;;;;7.13;1.02;;;9.60;99.90;;;;;;5022326;28;20548;-78
2023/12/26 03:12:45;;;;;;;3.45;0.65;;;9.60;99.90;;;;;;5020261;28;20091;-79
2023/12/26 03:15:15;;;;;;;7.03;0.77;;;9.60;99.90;;;;;;5038229;28;20051;-79
2023/12/26 03:17:41;;;;;;;1.38;0.32;;;9.60;99.90;;;;;;5013429;28;20504;-79
2023/12/26 03:20:07;;;;;;;3.85;0.93;;;9.60;99.90;;;;;;5019320;28;20040;-79
2023/12/26 03:22:33;;;;;;;7.32;0.60;;;9.50;99.90;;;;;;5015442;28;20057;-79
2023/12/26 03:24:59;;;;;;;1.52;0.60;;;9.60;99.90;;;;;;5055056;28;20032;-79
2023/12/26 03:27:24;;;;;;;0.47;0.47;;;9.60;99.90;;;;;;5016883;28;20049;-78
2023/12/26 03:29:50;;;;;;;1.95;0.70;;;9.60;99.90;;;;;;5025741;28;20490;-79
2023/12/26 03:32:19;;;;;;;1.55;0.32;;;9.60;99.90;;;;;;4978748;28;20046;-78
2023/12/26 03:34:45;;;;;;;8.38;0.88;;;9.70;99.90;;;;;;5020078;28;20054;-79
2023/12/26 03:37:11;;;;;;;0.47;0.45;;;9.70;99.90;;;;;;5001572;28;20117;-79
2023/12/26 03:39:41;;;;;;;4.03;0.77;;;9.60;99.90;;;;;;5085332;28;20035;-79
2023/12/26 03:42:07;;;;;;;6.30;0.60;;;9.70;99.90;;;;;;5005668;28;20091;-78
2023/12/26 03:44:32;;;;;;;3.40;1.58;;;9.70;99.90;;;;;;5003794;28;20102;-78
2023/12/26 03:46:58;;;;;;;4.07;0.45;;;9.70;99.90;;;;;;4994854;28;20061;-79
2023/12/26 03:49:24;;;;;;;2.72;0.60;;;9.60;99.90;;;;;;5008067;28;20046;-78
2023/12/26 03:51:49;;;;;;;4.97;0.43;;;9.50;99.90;;;;;;5019278;28;20053;-78
2023/12/26 03:54:15;;;;;;;4.38;0.30;;;9.40;99.90;;;;;;4994192;28;20061;-79
2023/12/26 03:56:41;;;;;;;2.88;0.40;;;9.20;99.90;;;;;;4978616;28;20071;-79
2023/12/26 03:59:07;;;;;;;0.30;0.10;;;9.10;99.90;;;;;;4984751;28;20066;-78
2023/12/26 04:01:33;;;;;;;3.47;0.40;;;8.90;99.90;;;;;;5016124;28;20038;-78
2023/12/26 04:03:59;;;;;;;2.20;0.65;;;8.70;99.90;;;;;;5021260;28;20105;-78
2023/12/26 04:06:25;;;;;;;2.10;0.50;;;8.70;99.90;;;;;;4979952;28;21670;-78
2023/12/26 04:08:50;;;;;;;3.38;0.25;;;8.50;99.90;;;;;;4979269;28;20057;-78
2023/12/26 04:11:16;;;;;;;2.92;0.47;;;8.40;99.90;;;;;;4993350;28;20049;-77
2023/12/26 04:13:42;;;;;;;1.25;0.45;;;8.20;99.90;;;;;;4991098;28;20049;-78
2023/12/26 04:16:08;;;;;;;4.93;0.35;;;8.10;99.90;;;;;;5009936;28;20053;-77
2023/12/26 04:18:33;;;;;;;1.45;0.30;;;8.00;99.90;;;;;;5009577;28;20038;-78
2023/12/26 04:20:59;;;;;;;4.47;0.32;;;8.00;99.90;;;;;;4979021;28;20133;-78
2023/12/26 04:23:25;;;;;;;1.42;0.65;;;7.90;99.90;;;;;;4991699;28;20085;-77
2023/12/26 04:25:51;;;;;;;7.13;0.60;;;7.80;99.90;;;;;;5009034;28;20101;-78
2023/12/26 04:28:17;;;;;;;1.55;0.28;;;7.80;99.90;;;;;;5011752;28;20054;-78
2023/12/26 04:30:44;;;;;;;5.93;0.20;;;7.80;99.90;;;;;;5008713;28;20041;-77
2023/12/26 04:33:10;;;;;;;0.55;0.43;;;7.70;99.90;;;;;;4992794;28;20465;-77
2023/12/26 04:35:39;;;;;;;0.98;0.22;;;7.70;99.90;;;;;;5026253;28;20072;-77
2023/12/26 04:38:04;;;;;;;7.32;0.75;;;7.60;99.90;;;;;;5046442;28;20039;-77
2023/12/26 04:40:30;;;;;;;5.65;0.35;;;7.60;99.90;;;;;;4979525;28;20134;-77
2023/12/26 04:43:00;;;;;;;8.40;1.23;;;7.60;99.90;;;;;;5015680;28;20054;-77
2023/12/26 04:45:26;;;;;;;6.93;0.45;;;7.60;99.90;;;;;;4993005;28;20052;-77
2023/12/26 04:47:52;;;;;;;5.95;0.77;;;7.50;99.90;;;;;;4981470;28;20132;-77
2023/12/26 04:50:17;;;;;;;3.70;0.93;;;7.50;99.90;;;;;;5010371;28;20050;-77
2023/12/26 04:52:43;;;;;;;0.65;0.40;;;7.50;99.90;;;;;;4976375;28;20034;-77
2023/12/26 04:55:09;;;;;;;2.05;0.63;;;7.40;99.90;;;;;;4991483;28;20980;-77
2023/12/26 04:57:37;;;;;;;4.03;0.93;;;7.40;99.90;;;;;;4986133;28;20482;-77
2023/12/26 05:00:03;;;;;;;4.53;0.73;;;7.40;99.90;;;;;;4999350;28;20046;-76
2023/12/26 05:02:29;;;;;;;1.52;0.63;;;7.30;99.90;;;;;;4981678;28;20042;-76
2023/12/26 05:04:55;;;;;;;3.58;0.60;;;7.30;99.90;;;;;;5016085;28;20045;-77
2023/12/26 05:07:21;;;;;;;2.55;1.13;;;7.30;99.90;;;;;;5007369;28;20038;-77
2023/12/26 05:09:46;;;;;;;4.32;0.65;;;7.30;99.90;;;;;;4987203;28;20045;-77
2023/12/26 05:12:12;;;;;;;3.30;0.70;;;7.30;99.90;;;;;;5020859;28;20041;-77
2023/12/26 05:14:38;;;;;;;4.35;0.32;;;7.40;99.90;;;;;;5014727;28;20049;-77
2023/12/26 05:17:04;;;;;;;11.85;1.08;;;7.40;99.90;;;;;;4983619;28;20030;-76
2023/12/26 05:19:30;;;;;;;4.75;0.63;;;7.40;99.90;;;;;;5044598;28;20048;-76
2023/12/26 05:21:56;;;;;;;1.50;0.55;;;7.40;99.90;;;;;;4986223;28;20065;-76
2023/12/26 05:24:21;;;;;;;2.20;0.65;;;7.40;99.90;;;;;;5017357;28;20600;-76
2023/12/26 05:26:47;;;;;;;5.35;0.52;;;7.40;99.90;;;;;;4992052;28;20054;-77
2023/12/26 05:29:13;;;;;;;5.93;1.52;;;7.50;99.90;;;;;;5036086;28;20098;-76
2023/12/26 05:31:39;;;;;;;3.47;0.80;;;7.60;99.90;;;;;;4994610;28;20045;-76
2023/12/26 05:34:07;;;;;;;3.67;0.52;;;7.70;99.90;;;;;;4998431;28;20034;-76
2023/12/26 05:36:33;;;;;;;2.28;0.50;;;7.80;99.90;;;;;;5006541;28;20045;-76
2023/12/26 05:38:59;;;;;;;1.23;0.55;;;7.80;99.90;;;;;;4993258;28;20087;-76
2023/12/26 05:41:25;;;;;;;5.43;1.08;;;7.90;99.90;;;;;;5010332;28;20399;-76
2023/12/26 05:43:51;;;;;;;6.07;0.50;;;7.90;99.90;;;;;;4976880;28;20056;-76
2023/12/26 05:46:18;;;;;;;2.88;0.70;;;8.00;99.90;;;;;;5002065;28;20098;-76
2023/12/26 05:48:44;;;;;;;4.45;0.57;;;8.00;99.90;;;;;;5010624;28;20054;-76
2023/12/26 05:51:10;;;;;;;5.43;0.90;;;8.10;99.90;;;;;;4995094;28;20128;-76
2023/12/26 05:53:36;;;;;;;1.13;0.28;;;8.20;99.90;;;;;;4976995;28;20533;-76
2023/12/26 05:56:02;;;;;;;4.13;0.30;;;8.20;99.90;;;;;;4993077;28;20037;-76
2023/12/26 05:58:27;;;;;;;2.28;0.55;;;8.30;99.90;;;;;;4989852;28;20030;-76
2023/12/26 06:00:54;;;;;;;0.47;0.40;;;8.30;99.90;;;;;;5020903;28;20078;-75
2023/12/26 06:03:20;;;;;;;11.52;1.30;;;8.40;99.90;;;;;;4994431;28;20118;-76
2023/12/26 06:05:46;;;;;;;2.90;0.43;;;8.50;99.90;;;;;;4993771;28;20054;-76
2023/12/26 06:08:13;;;;;;;3.28;0.45;;;8.50;99.90;;;;;;5022586;28;20051;-75
2023/12/26 06:10:39;;;;;;;8.02;0.85;;;8.50;99.90;;;;;;5008581;28;20042;-76
2023/12/26 06:13:05;;;;;;;3.75;0.50;;;8.60;99.90;;;;;;4976932;28;20068;-76
2023/12/26 06:15:30;;;;;;;4.28;0.68;;;8.60;99.90;;;;;;4977995;28;20038;-76
2023/12/26 06:17:58;;;;;;;1.40;0.40;;;8.60;99.90;;;;;;4990663;28;20070;-76
2023/12/26 06:20:27;;;;;;;3.00;0.80;;;8.60;99.90;;;;;;4985263;28;20046;-76
2023/12/26 06:22:53;;;;;;;2.00;0.55;;;8.60;99.90;;;;;;4974266;28;20041;-76
2023/12/26 06:25:19;;;;;;;7.30;0.63;;;8.60;99.90;;;;;;4976966;28;20102;-76
2023/12/26 06:27:45;;;;;;;4.32;0.90;;;8.70;99.90;;;;;;4971905;28;20095;-75
2023/12/26 06:30:11;;;;;;;3.80;0.70;;;8.70;99.90;;;;;;4990510;28;20042;-76
2023/12/26 06:32:37;;;;;;;0.90;0.70;;;8.70;99.90;;;;;;4977337;28;20120;-76
2023/12/26 06:35:03;;;;;;;2.53;0.88;;;8.70;99.90;;;;;;5029382;28;20073;-76
2023/12/26 06:37:29;;;;;;;0.85;0.32;;;8.70;99.90;;;;;;5070928;28;20408;-76
2023/12/26 06:39:54;;;;;;;10.18;0.93;;;8.70;99.90;;;;;;4980101;28;20042;-76
2023/12/26 06:42:21;;;;;;;5.03;0.45;;;8.70;99.90;;;;;;4984268;28;20057;-75
2023/12/26 06:44:46;;;;;;;3.08;0.60;;;8.70;99.90;;;;;;5010652;28;20183;-75
2023/12/26 06:47:13;;;;;;;6.13;1.42;;;8.70;99.90;;;;;;4974036;28;20530;-75
2023/12/26 06:49:45;;;;;;;2.35;1.08;;;8.70;99.90;;;;;;4991402;28;20065;-75
2023/12/26 06:52:14;;;;;;;8.88;0.93;;;8.70;99.90;;;;;;4990435;28;20053;-75
2023/12/26 06:54:41;;;;;;;1.55;0.82;;;8.70;99.90;;;;;;5060041;28;20056;-75
2023/12/26 06:57:15;;;;;;;0.55;0.32;;;8.80;99.90;;;;;;4991453;28;20067;-75
2023/12/26 06:59:46;;;;;;;6.75;1.00;;;8.70;99.90;;;;;;4992169;28;20584;-75
2023/12/26 07:02:12;;;;;;;1.08;0.47;;;8.80;99.90;;;;;;4995813;28;20057;-75
2023/12/26 07:04:41;;;;;;;2.75;0.43;;;8.70;99.90;;;;;;5013194;28;20045;-75
2023/12/26 07:07:07;;;;;;;0.90;0.75;;;8.70;99.90;;;;;;4998108;28;20030;-76
2023/12/26 07:09:33;;;;;;;7.53;0.63;;;8.70;99.90;;;;;;5010992;28;20049;-76
2023/12/26 07:11:58;;;;;;;8.07;0.98;;;8.70;99.90;;;;;;5050530;28;20131;-76
2023/12/26 07:14:24;;;;;;;4.32;0.77;;;8.70;99.90;;;;;;5014925;28;20048;-76
2023/12/26 07:16:50;;;;;;;1.95;0.68;;;8.70;99.90;;;;;;4979869;28;20070;-76
2023/12/26 07:19:15;;;;;;;2.58;0.68;;;8.60;99.90;;;;;;5011051;28;20124;-76
2023/12/26 07:21:41;;;;;;;7.60;0.70;;;8.60;99.90;;;;;;5045666;28;20179;-75
2023/12/26 07:24:07;;;;;;;4.38;1.33;;;8.70;99.90;;;;;;5049862;28;20402;-76
2023/12/26 07:26:33;;;;;;;12.88;0.93;;;8.70;99.90;;;;;;5033451;28;20044;-76
2023/12/26 07:28:59;;;;;;;5.25;1.38;;;8.60;99.90;;;;;;5012406;28;20057;-76
2023/12/26 07:31:25;;;;;;;7.80;1.15;;;8.70;99.90;;;;;;4990452;28;20106;-76
2023/12/26 07:33:51;;;;;;;11.75;1.17;;;8.60;99.90;;;;;;4961624;28;20038;-76
2023/12/26 07:36:17;;;;;;;6.40;0.73;;;8.60;99.90;;;;;;4968005;28;21341;-76
2023/12/26 07:38:43;;;;;;;1.65;0.57;;;8.70;99.90;;;;;;5005572;28;20034;-76
2023/12/26 07:41:09;;;;;;;5.88;1.15;;;8.70;99.90;;;;;;4993816;28;20059;-76
2023/12/26 07:43:35;;;;;;;2.17;0.77;;;8.60;99.90;;;;;;5005504;28;20038;-76
2023/12/26 07:46:01;;;;;;;8.40;0.98;;;8.60;99.90;;;;;;4989111;28;20063;-76
2023/12/26 07:48:27;;;;;;;7.78;1.27;;;8.60;99.90;;;;;;4968554;28;20044;-75
2023/12/26 07:50:53;;;;;;;6.90;0.68;;;8.50;99.90;;;;;;4965614;28;20107;-75
2023/12/26 07:53:19;;;;;;;5.05;0.65;;;8.50;99.90;;;;;;5003162;28;20077;-76
2023/12/26 07:55:44;;;;;;;8.73;1.30;;;8.40;99.90;;;;;;4974025;28;20042;-76
2023/12/26 07:58:10;;;;;;;7.28;0.70;;;8.40;99.90;;;;;;4991094;28;20057;-76
2023/12/26 08:00:36;;;;;;;2.42;0.63;;;8.30;99.90;;;;;;4999789;28;20143;-76
2023/12/26 08:03:01;;;;;;;6.53;0.63;;;8.40;99.90;;;;;;4975747;28;20065;-75
2023/12/26 08:05:27;;;;;;;5.57;0.73;;;8.40;99.90;;;;;;5006311;28;20046;-76
2023/12/26 08:07:53;;;;;;;4.55;0.52;;;8.50;99.90;;;;;;4976328;28;20049;-76
2023/12/26 08:10:18;;;;;;;6.28;0.85;;;8.50;99.90;;;;;;4972958;28;20073;-75
2023/12/26 08:12:44;;;;;;;0.68;0.38;;;8.50;99.90;;;;;;4974084;28;20042;-76
2023/12/26 08:15:10;;;;;;;6.88;0.80;;;8.50;99.90;;;;;;4989396;28;20418;-75
2023/12/26 08:17:37;;;;;;;7.13;1.23;;;8.50;99.90;;;;;;4986891;28;20050;-75
2023/12/26 08:20:04;;;;;;;9.75;1.17;;;8.40;99.90;;;;;;4990214;28;20045;-76
2023/12/26 08:22:29;;;;;;;3.83;0.98;;;8.40;99.90;;;;;;4972697;28;20087;-76
2023/12/26 08:24:55;;;;;;;8.05;1.23;;;8.40;99.90;;;;;;4985898;28;20046;-75
2023/12/26 08:27:22;;;;;;;3.17;0.52;;;8.40;99.90;;;;;;5003713;28;20045;-75
2023/12/26 08:29:49;;;;;;;6.45;1.00;;;8.40;99.90;;;;;;4989315;28;20368;-75
2023/12/26 08:32:15;;;;;;;4.03;0.85;;;8.30;99.90;;;;;;4974381;28;20455;-76
2023/12/26 08:34:44;;;;;;;2.97;0.55;;;8.20;99.90;;;;;;5012813;28;20049;-75
2023/12/26 08:37:11;;;;;;;2.47;0.68;;;8.20;99.90;;;;;;4976563;28;20098;-76
2023/12/26 08:39:36;;;;;;;6.45;0.77;;;8.10;99.90;;;;;;5052746;28;20047;-76
2023/12/26 08:42:02;;;;;;;3.75;0.90;;;8.20;99.90;;;;;;5015648;28;20042;-75
2023/12/26 08:44:28;;;;;;;14.48;1.58;;;8.10;99.90;;;;;;4981309;28;20500;-76
2023/12/26 08:46:54;;;;;;;11.43;1.02;;;8.20;99.90;;;;;;4996593;28;20038;-75
2023/12/26 08:49:20;;;;;;;1.52;0.60;;;8.20;99.90;;;;;;4991356;28;20046;-76
2023/12/26 08:51:46;;;;;;;10.18;1.05;;;8.20;99.90;;;;;;4961926;28;20045;-75
2023/12/26 08:54:12;;;;;;;2.17;0.82;;;8.30;99.90;;;;;;4975374;28;20071;-75
2023/12/26 08:56:41;;;;;;;6.53;1.02;;;8.30;99.90;;;;;;4977626;28;20042;-76
2023/12/26 08:59:07;;;;;;;5.13;1.42;;;8.30;99.90;;;;;;5000015;28;20420;-76
2023/12/26 09:01:35;;;;;;;10.20;1.38;;;8.30;99.90;;;;;;5016730;28;20116;-75
2023/12/26 09:04:02;;;;;;;7.93;0.85;;;8.30;99.90;;;;;;5016844;28;20405;-76
2023/12/26 09:06:28;;;;;;;6.93;1.48;;;8.40;99.90;;;;;;5017322;28;20057;-76
2023/12/26 09:08:53;;;;;;;2.60;1.02;;;8.40;99.90;;;;;;5014459;28;20127;-76
2023/12/26 09:11:19;;;;;;;9.45;1.17;;;8.40;99.90;;;;;;5000325;28;20088;-75
2023/12/26 09:13:46;;;;;;;7.25;0.73;;;8.40;99.90;;;;;;4982739;28;20046;-75
2023/12/26 09:16:12;;;;;;;5.85;0.30;;;8.50;99.90;;;;;;5012924;28;20045;-76
2023/12/26 09:18:39;;;;;;;12.35;1.00;;;8.60;99.90;;;;;;5018060;28;20102;-76
2023/12/26 09:21:05;;;;;;;2.75;0.70;;;8.50;99.90;;;;;;5059412;28;20030;-75
2023/12/26 09:23:31;;;;;;;3.78;1.02;;;8.50;99.90;;;;;;5013249;28;20109;-75
2023/12/26 09:25:56;;;;;;;4.30;0.75;;;8.50;99.90;;;;;;4990922;28;20130;-75
2023/12/26 09:28:23;;;;;;;4.18;0.90;;;8.40;99.90;;;;;;5016647;28;20046;-75
2023/12/26 09:30:48;;;;;;;2.10;0.60;;;8.40;99.90;;;;;;4979144;28;20042;-75
2023/12/26 09:33:14;;;;;;;6.57;0.82;;;8.40;99.90;;;;;;4991642;28;20486;-75
2023/12/26 09:35:40;;;;;;;7.10;0.93;;;8.40;99.90;;;;;;4994348;28;20147;-75
2023/12/26 09:38:06;;;;;;;3.63;0.47;;;8.40;99.90;;;;;;4993770;28;20038;-75
2023/12/26 09:40:32;;;;;;;7.88;0.93;;;8.40;99.90;;;;;;4992008;28;20042;-75
2023/12/26 09:43:03;;;;;;;6.13;1.33;;;8.50;99.90;;;;;;4975871;28;20053;-75
2023/12/26 09:45:30;;;;;;;0.37;0.23;;;8.50;99.90;;;;;;4991334;28;20117;-75
2023/12/26 09:47:57;;;;;;;5.20;1.33;;;8.80;99.90;;;;;;4972593;28;20158;-75
2023/12/26 09:50:24;;;;;;;3.78;0.88;;;9.10;99.90;;;;;;4991538;28;20042;-75
2023/12/26 09:52:58;;;;;;;11.25;1.20;;;9.10;99.90;;;;;;4991015;28;20180;-76
2023/12/26 09:55:29;;;;;;;3.83;0.63;;;9.00;99.90;;;;;;4992723;28;20524;-76
2023/12/26 09:57:58;;;;;;;8.25;1.45;;;8.90;99.90;;;;;;5003571;28;20035;-75
2023/12/26 10:00:26;;;;;;;6.70;1.20;;;8.90;99.90;;;;;;5024772;28;20075;-76
2023/12/26 10:02:53;;;;;;;5.97;1.00;;;8.80;99.90;;;;;;5015210;28;20101;-76
2023/12/26 10:05:19;;;;;;;8.30;0.82;;;8.80;99.90;;;;;;4998111;28;20049;-76
2023/12/26 10:07:45;;;;;;;6.22;1.00;;;8.80;99.90;;;;;;5021406;28;20120;-76
2023/12/26 10:10:12;;;;;;;5.35;1.02;;;8.80;99.90;;;;;;4998425;28;20049;-76
2023/12/26 10:12:37;;;;;;;9.30;1.13;;;8.80;99.90;;;;;;5010480;28;20050;-76
2023/12/26 10:15:04;;;;;;;7.93;0.95;;;8.80;99.90;;;;;;4981693;28;20156;-75
2023/12/26 10:17:31;;;;;;;4.95;1.55;;;8.90;99.90;;;;;;4990153;28;20494;-76
2023/12/26 10:19:57;;;;;;;9.30;1.13;;;9.00;99.90;;;;;;5009494;28;20038;-76
2023/12/26 10:22:30;;;;;;;4.35;1.55;;;9.10;99.90;;;;;;5012943;28;20509;-76
2023/12/26 10:24:56;;;;;;;6.80;0.75;;;9.20;99.90;;;;;;4993147;28;20096;-76
2023/12/26 10:27:25;;;;;;;6.05;0.73;;;9.20;99.90;;;;;;4977765;28;20053;-76
2023/12/26 10:29:54;;;;;;;3.80;0.63;;;9.20;99.90;;;;;;4975513;28;20065;-75
2023/12/26 10:32:24;;;;;;;15.85;1.70;;;9.30;99.90;;;;;;5009983;28;20116;-76
2023/12/26 10:34:51;;;;;;;6.35;1.80;;;9.30;99.90;;;;;;4988276;28;20080;-75
2023/12/26 10:37:24;;;;;;;2.78;0.70;;;9.30;99.90;;;;;;5006461;28;20045;-76
2023/12/26 10:39:51;;;;;;;12.93;1.40;;;9.30;99.90;;;;;;4989543;28;20771;-75
2023/12/26 10:42:18;;;;;;;1.67;0.70;;;9.30;99.90;;;;;;4978808;28;20050;-76
2023/12/26 10:45:06;;;;;;;3.75;0.73;;;9.30;99.90;;;;;;4989796;28;20073;-76
2023/12/26 10:47:33;;;;;;;8.73;1.00;;;9.30;99.90;;;;;;4991553;28;20049;-76
2023/12/26 10:50:01;;;;;;;1.10;0.60;;;9.30;99.90;;;;;;4994835;28;20105;-75
2023/12/26 10:52:28;;;;;;;7.25;1.17;;;9.30;99.90;;;;;;4989551;28;20447;-76
2023/12/26 10:55:00;;;;;;;5.30;1.48;;;9.30;99.90;;;;;;4979492;28;20041;-75
2023/12/26 10:57:30;;;;;;;7.63;1.17;;;9.30;99.90;;;;;;4996361;28;20046;-75
2023/12/26 13:52:28;;;;;;;12.10;1.30;;;9.30;99.90;;;;;;5011406;28;20073;-75
2023/12/26 13:55:31;;;;;;;6.15;0.63;;;9.20;99.90;;;;;;5014668;28;20097;-76
2023/12/26 13:58:35;;;;;;;4.05;0.47;;;9.00;99.90;;;;;;5011703;28;20104;-75
2023/12/26 14:01:38;;;;;;;0.65;0.45;;;8.80;99.90;;;;;;4995767;28;20049;-75
2023/12/26 14:04:41;;;;;;;3.10;0.75;;;8.60;99.90;;;;;;5012100;28;20081;-75
2023/12/26 14:07:45;;;;;;;5.78;1.00;;;8.40;99.90;;;;;;4996070;28;20058;-75
2023/12/26 14:10:48;;;;;;;18.92;1.30;;;8.20;99.90;;;;;;5062945;28;20041;-75
2023/12/26 14:13:52;;;;;;;5.13;0.60;;;8.10;99.90;;;;;;5003009;28;20045;-75
2023/12/26 14:16:55;;;;;;;10.00;0.70;;;8.00;99.90;;;;;;5014434;28;20081;-75
2023/12/26 14:19:58;;;;;;;0.10;0.10;;;7.90;99.90;;;;;;4995919;28;20057;-74
2023/12/26 14:23:02;;;;;;;0.57;0.35;;;7.90;99.90;;;;;;4985702;28;20050;-75
2023/12/26 14:26:05;;;;;;;8.25;0.77;;;7.90;99.90;;;;;;4992041;28;20052;-74
2023/12/26 14:29:09;;;;;;;0.75;0.25;;;7.90;99.90;;;;;;4993571;28;20061;-67
2023/12/26 14:32:12;;;;;;;1.85;0.20;;;7.90;99.90;;;;;;5017428;28;20038;-67
2023/12/26 14:35:15;;;;;;;6.53;0.93;;;7.70;99.90;;;;;;5036493;28;20053;-67
2023/12/26 14:38:19;;;;;;;0.40;0.40;;;7.70;99.90;;;;;;5037678;28;20123;-67
2023/12/26 14:41:22;;;;;;;0.55;0.20;;;7.60;99.90;;;;;;5038573;28;20102;-67
2023/12/26 14:44:25;;;;;;;4.38;0.63;;;7.50;99.90;;;;;;5059499;28;20135;-67
2023/12/26 14:47:28;;;;;;;1.00;0.45;;;7.40;99.90;;;;;;5022438;28;20096;-67
2023/12/26 14:50:32;;;;;;;9.23;0.82;;;7.30;99.90;;;;;;5018694;28;20068;-67
2023/12/26 14:53:36;;;;;;;0.25;0.25;;;7.30;99.90;;;;;;5035720;28;20064;-67
2023/12/26 14:56:39;;;;;;;0.68;0.30;;;7.20;99.90;;;;;;5003414;28;20037;-67
2023/12/26 14:59:42;;;;;;;6.70;0.40;;;7.20;99.90;;;;;;5008466;28;20046;-67
2023/12/26 15:02:08;;;;;;;2.92;0.60;;;7.10;99.90;;;;;;5009915;28;20042;-67
2023/12/26 15:04:33;;;;;;;1.27;0.20;;;7.00;99.90;;;;;;5044794;28;20046;-67
2023/12/26 15:07:01;;;;;;;2.30;0.35;;;7.00;99.90;;;;;;5055421;28;20056;-67
2023/12/26 15:09:28;;;;;;;3.10;0.60;;;7.00;99.90;;;;;;5029227;28;20414;-67
2023/12/26 15:11:54;;;;;;;3.15;0.60;;;6.90;99.90;;;;;;5020574;28;20126;-67
2023/12/26 15:14:19;;;;;;;0.75;0.43;;;6.90;99.90;;;;;;4994525;28;20049;-67
2023/12/26 15:16:45;;;;;;;2.92;0.60;;;6.90;99.90;;;;;;5004773;28;20053;-67
2023/12/26 15:19:11;;;;;;;0.55;0.55;;;6.80;99.90;;;;;;5005048;28;20049;-67
2023/12/26 15:21:43;;;;;;;3.63;0.57;;;6.80;99.90;;;;;;5002270;28;21314;-68
2023/12/26 15:24:13;;;;;;;4.00;0.40;;;6.70;99.90;;;;;;5009173;28;20045;-67
2023/12/26 15:26:39;;;;;;;2.60;0.45;;;6.80;99.90;;;;;;5004892;28;20152;-67
2023/12/26 15:29:05;;;;;;;4.13;0.25;;;6.70;99.90;;;;;;5006128;28;20078;-67
2023/12/26 15:31:32;;;;;;;5.28;0.45;;;6.70;99.90;;;;;;5040204;28;20054;-67
2023/12/26 15:33:58;;;;;;;1.00;0.28;;;6.70;99.90;;;;;;5000742;28;20050;-68
2023/12/26 15:36:25;;;;;;;2.70;0.63;;;6.60;99.90;;;;;;5000879;28;20106;-67
2023/12/26 15:38:52;;;;;;;1.73;0.70;;;6.60;99.90;;;;;;5005149;28;20054;-67
2023/12/26 15:41:23;;;;;;;1.38;0.55;;;6.50;99.90;;;;;;5006969;28;20042;-67
2023/12/26 15:43:50;;;;;;;3.67;0.40;;;6.50;99.90;;;;;;5012683;28;20041;-67
2023/12/26 15:46:20;;;;;;;6.88;1.45;;;6.50;99.90;;;;;;5046374;28;20038;-67
2023/12/26 15:48:47;;;;;;;1.23;0.50;;;6.50;99.90;;;;;;5041519;28;20415;-67
2023/12/26 15:51:13;;;;;;;4.47;0.40;;;6.40;99.90;;;;;;5015251;28;20034;-67
2023/12/26 15:53:49;;;;;;;6.50;0.60;;;6.40;99.90;;;;;;5019749;28;20033;-67
2023/12/26 15:56:20;;;;;;;3.17;0.47;;;6.30;99.90;;;;;;5027451;28;20041;-67